FIN7YB EFHK-ESSA
Flight info
| Callsign | FIN7YB |
|---|---|
| Flight time | 0h 47m |
| Altitude | 30000 |
| Route | ADIVO Y365 POGOK DCT RUNGA N872 XILAN |
| Aircraft | A320/M-SDE3FGHIRWY/LB1 |
Departure
| Time | 2026-04-26 10:48 |
|---|---|
| Airport | Helsinki Vantaa Airport (EFHK) |
Arrival
| Time | 2026-04-26 11:36 |
|---|---|
| Airport | Stockholm-Arlanda Airport (ESSA) |
| Time | Latitude | Longitude | Altitude | Speed | Heading |
|---|---|---|---|---|---|
| 2026-04-26 10:23 | 60.31906 | 24.96623 | 167 ft | 0 kts | 137° |
| 2026-04-26 10:26 | 60.31906 | 24.96622 | 167 ft | 0 kts | 137° |
| 2026-04-26 10:37 | 60.31914 | 24.96608 | 139 ft | 4 kts | 138° |
| 2026-04-26 10:37 | 60.31934 | 24.96571 | 167 ft | 4 kts | 131° |
| 2026-04-26 10:37 | 60.31946 | 24.96530 | 167 ft | 4 kts | 71° |
| 2026-04-26 10:38 | 60.31932 | 24.96494 | 167 ft | 4 kts | 47° |
| 2026-04-26 10:38 | 60.31920 | 24.96467 | 167 ft | 0 kts | 47° |
| 2026-04-26 10:42 | 60.31920 | 24.96468 | 167 ft | 0 kts | 47° |
| 2026-04-26 10:42 | 60.31949 | 24.96531 | 167 ft | 9 kts | 47° |
| 2026-04-26 10:42 | 60.31997 | 24.96635 | 167 ft | 12 kts | 47° |
| 2026-04-26 10:42 | 60.32063 | 24.96780 | 167 ft | 15 kts | 47° |
| 2026-04-26 10:43 | 60.32131 | 24.96924 | 166 ft | 10 kts | 46° |
| 2026-04-26 10:43 | 60.32117 | 24.97042 | 166 ft | 11 kts | 147° |
| 2026-04-26 10:43 | 60.32024 | 24.97139 | 165 ft | 19 kts | 154° |
| 2026-04-26 10:43 | 60.31874 | 24.97288 | 162 ft | 29 kts | 154° |
| 2026-04-26 10:44 | 60.31711 | 24.97466 | 159 ft | 22 kts | 153° |
| 2026-04-26 10:44 | 60.31578 | 24.97591 | 156 ft | 21 kts | 153° |
| 2026-04-26 10:44 | 60.31453 | 24.97727 | 156 ft | 20 kts | 152° |
| 2026-04-26 10:44 | 60.31337 | 24.97848 | 157 ft | 17 kts | 153° |
| 2026-04-26 10:45 | 60.31228 | 24.97963 | 158 ft | 19 kts | 153° |
| 2026-04-26 10:45 | 60.31093 | 24.98100 | 158 ft | 23 kts | 154° |
| 2026-04-26 10:45 | 60.30976 | 24.98217 | 158 ft | 10 kts | 131° |
| 2026-04-26 10:45 | 60.30984 | 24.98371 | 156 ft | 12 kts | 76° |
| 2026-04-26 10:46 | 60.31037 | 24.98478 | 155 ft | 11 kts | 4° |
| 2026-04-26 10:46 | 60.31084 | 24.98444 | 157 ft | 0 kts | 331° |
| 2026-04-26 10:47 | 60.31086 | 24.98442 | 157 ft | 0 kts | 330° |
| 2026-04-26 10:47 | 60.31089 | 24.98438 | 157 ft | 4 kts | 330° |
| 2026-04-26 10:47 | 60.31316 | 24.98201 | 158 ft | 71 kts | 334° |
| 2026-04-26 10:48 | 60.31940 | 24.97562 | 154 ft | 127 kts | 333° |
| 2026-04-26 10:48 | 60.32807 | 24.96669 | 566 ft | 143 kts | 333° |
| 2026-04-26 10:48 | 60.33674 | 24.95659 | 1568 ft | 145 kts | 321° |
| 2026-04-26 10:48 | 60.34447 | 24.94165 | 2067 ft | 165 kts | 308° |
| 2026-04-26 10:49 | 60.35050 | 24.92025 | 2439 ft | 188 kts | 292° |
| 2026-04-26 10:49 | 60.35309 | 24.89249 | 2829 ft | 216 kts | 272° |
| 2026-04-26 10:49 | 60.35010 | 24.86098 | 3391 ft | 243 kts | 250° |
| 2026-04-26 10:49 | 60.34206 | 24.83003 | 4273 ft | 252 kts | 245° |
| 2026-04-26 10:50 | 60.33365 | 24.79875 | 5297 ft | 255 kts | 245° |
| 2026-04-26 10:50 | 60.32796 | 24.77749 | 5982 ft | 256 kts | 245° |
| 2026-04-26 10:50 | 60.31665 | 24.73513 | 7238 ft | 261 kts | 245° |
| 2026-04-26 10:50 | 60.30804 | 24.70273 | 8173 ft | 264 kts | 245° |
| 2026-04-26 10:51 | 60.30058 | 24.66877 | 9105 ft | 266 kts | 256° |
| 2026-04-26 10:51 | 60.29731 | 24.59369 | 10504 ft | 285 kts | 271° |
| 2026-04-26 10:51 | 60.29751 | 24.55236 | 10892 ft | 303 kts | 271° |
| 2026-04-26 10:52 | 60.29763 | 24.50932 | 11647 ft | 309 kts | 270° |
| 2026-04-26 10:52 | 60.29770 | 24.46573 | 12507 ft | 312 kts | 269° |
| 2026-04-26 10:52 | 60.29776 | 24.42178 | 13369 ft | 315 kts | 269° |
| 2026-04-26 10:52 | 60.29781 | 24.37755 | 14142 ft | 317 kts | 269° |
| 2026-04-26 10:53 | 60.29786 | 24.33285 | 14887 ft | 320 kts | 269° |
| 2026-04-26 10:53 | 60.29788 | 24.28782 | 15627 ft | 323 kts | 268° |
| 2026-04-26 10:53 | 60.29786 | 24.24233 | 16358 ft | 326 kts | 268° |
| 2026-04-26 10:54 | 60.29781 | 24.15017 | 17795 ft | 332 kts | 268° |
| 2026-04-26 10:54 | 60.29774 | 24.10341 | 18446 ft | 335 kts | 268° |
| 2026-04-26 10:54 | 60.29766 | 24.05624 | 19066 ft | 338 kts | 268° |
| 2026-04-26 10:54 | 60.29755 | 24.00865 | 19677 ft | 341 kts | 267° |
| 2026-04-26 10:55 | 60.29534 | 23.96114 | 20290 ft | 342 kts | 257° |
| 2026-04-26 10:55 | 60.29025 | 23.91407 | 20911 ft | 345 kts | 256° |
| 2026-04-26 10:55 | 60.28509 | 23.86665 | 21528 ft | 348 kts | 256° |
| 2026-04-26 10:55 | 60.28167 | 23.83509 | 21932 ft | 350 kts | 256° |
| 2026-04-26 10:56 | 60.27469 | 23.77070 | 22763 ft | 353 kts | 256° |
| 2026-04-26 10:56 | 60.26945 | 23.72219 | 23363 ft | 356 kts | 256° |
| 2026-04-26 10:56 | 60.26413 | 23.67323 | 23831 ft | 359 kts | 256° |
| 2026-04-26 10:56 | 60.25870 | 23.62385 | 24278 ft | 363 kts | 256° |
| 2026-04-26 10:57 | 60.25319 | 23.57405 | 24727 ft | 366 kts | 256° |
| 2026-04-26 10:57 | 60.24764 | 23.52393 | 25156 ft | 369 kts | 256° |
| 2026-04-26 10:57 | 60.24197 | 23.47335 | 25578 ft | 372 kts | 256° |
| 2026-04-26 10:57 | 60.23626 | 23.42247 | 25985 ft | 375 kts | 257° |
| 2026-04-26 10:58 | 60.23048 | 23.37109 | 26399 ft | 378 kts | 257° |
| 2026-04-26 10:58 | 60.22467 | 23.31940 | 26802 ft | 380 kts | 257° |
| 2026-04-26 10:58 | 60.21882 | 23.26729 | 27202 ft | 383 kts | 257° |
| 2026-04-26 10:58 | 60.21290 | 23.21478 | 27591 ft | 386 kts | 257° |
| 2026-04-26 10:59 | 60.20690 | 23.16203 | 27984 ft | 389 kts | 257° |
| 2026-04-26 10:59 | 60.20083 | 23.10884 | 28372 ft | 392 kts | 257° |
| 2026-04-26 10:59 | 60.19469 | 23.05528 | 28738 ft | 394 kts | 257° |
| 2026-04-26 10:59 | 60.18849 | 23.00138 | 29102 ft | 397 kts | 257° |
| 2026-04-26 11:00 | 60.18224 | 22.94726 | 29480 ft | 399 kts | 257° |
| 2026-04-26 11:00 | 60.17602 | 22.89339 | 29797 ft | 402 kts | 257° |
| 2026-04-26 11:00 | 60.16964 | 22.83863 | 29860 ft | 390 kts | 257° |
| 2026-04-26 11:00 | 60.16354 | 22.78657 | 29859 ft | 378 kts | 257° |
| 2026-04-26 11:01 | 60.15152 | 22.68517 | 29856 ft | 371 kts | 257° |
| 2026-04-26 11:01 | 60.13949 | 22.58446 | 29880 ft | 371 kts | 257° |
| 2026-04-26 11:02 | 60.12755 | 22.48405 | 29876 ft | 370 kts | 257° |
| 2026-04-26 11:02 | 60.11566 | 22.38445 | 29879 ft | 369 kts | 257° |
| 2026-04-26 11:03 | 60.10356 | 22.28436 | 29880 ft | 370 kts | 257° |
| 2026-04-26 11:03 | 60.09132 | 22.18422 | 29897 ft | 370 kts | 257° |
| 2026-04-26 11:04 | 60.07902 | 22.08419 | 29906 ft | 370 kts | 257° |
| 2026-04-26 11:04 | 60.06871 | 22.00046 | 29895 ft | 370 kts | 257° |
| 2026-04-26 11:05 | 60.05633 | 21.90066 | 29896 ft | 370 kts | 257° |
| 2026-04-26 11:05 | 60.04380 | 21.80090 | 29900 ft | 370 kts | 257° |
| 2026-04-26 11:06 | 60.03128 | 21.70174 | 29907 ft | 370 kts | 257° |
| 2026-04-26 11:06 | 60.01852 | 21.60123 | 29919 ft | 371 kts | 257° |
| 2026-04-26 11:07 | 60.00577 | 21.50179 | 29908 ft | 371 kts | 257° |
| 2026-04-26 11:07 | 59.99294 | 21.40228 | 29912 ft | 371 kts | 257° |
| 2026-04-26 11:08 | 59.97959 | 21.30183 | 29918 ft | 372 kts | 257° |
| 2026-04-26 11:08 | 59.96565 | 21.20235 | 29930 ft | 372 kts | 256° |
| 2026-04-26 11:09 | 59.95170 | 21.10395 | 29933 ft | 373 kts | 257° |
| 2026-04-26 11:09 | 59.93758 | 21.00409 | 29943 ft | 373 kts | 257° |
| 2026-04-26 11:10 | 59.92349 | 20.90448 | 29947 ft | 373 kts | 257° |
| 2026-04-26 11:10 | 59.90939 | 20.80492 | 29947 ft | 373 kts | 257° |
| 2026-04-26 11:11 | 59.89515 | 20.70550 | 29958 ft | 373 kts | 257° |
| 2026-04-26 11:11 | 59.88083 | 20.60597 | 29970 ft | 376 kts | 257° |
| 2026-04-26 11:12 | 59.87350 | 20.55522 | 29727 ft | 386 kts | 257° |
| 2026-04-26 11:12 | 59.86602 | 20.50362 | 28868 ft | 389 kts | 257° |
| 2026-04-26 11:12 | 59.85858 | 20.45298 | 28378 ft | 371 kts | 257° |
| 2026-04-26 11:12 | 59.85145 | 20.40503 | 27962 ft | 353 kts | 257° |
| 2026-04-26 11:13 | 59.84463 | 20.35917 | 27567 ft | 337 kts | 257° |
| 2026-04-26 11:13 | 59.83816 | 20.31565 | 27183 ft | 322 kts | 257° |
| 2026-04-26 11:13 | 59.83186 | 20.27283 | 26820 ft | 323 kts | 257° |
| 2026-04-26 11:13 | 59.82557 | 20.22996 | 26460 ft | 323 kts | 257° |
| 2026-04-26 11:14 | 59.81930 | 20.18734 | 26090 ft | 320 kts | 258° |
| 2026-04-26 11:14 | 59.81305 | 20.14501 | 25730 ft | 318 kts | 258° |
| 2026-04-26 11:14 | 59.80683 | 20.10300 | 25349 ft | 316 kts | 258° |
| 2026-04-26 11:14 | 59.80063 | 20.06132 | 24978 ft | 313 kts | 258° |
| 2026-04-26 11:15 | 59.79446 | 20.02004 | 24592 ft | 311 kts | 258° |
| 2026-04-26 11:15 | 59.78829 | 19.97891 | 24208 ft | 310 kts | 258° |
| 2026-04-26 11:15 | 59.78216 | 19.93805 | 23820 ft | 308 kts | 258° |
| 2026-04-26 11:15 | 59.77606 | 19.89751 | 23394 ft | 306 kts | 258° |
| 2026-04-26 11:16 | 59.76994 | 19.85721 | 22986 ft | 304 kts | 258° |
| 2026-04-26 11:16 | 59.76386 | 19.81729 | 22597 ft | 301 kts | 258° |
| 2026-04-26 11:16 | 59.75780 | 19.77761 | 22203 ft | 299 kts | 258° |
| 2026-04-26 11:16 | 59.75178 | 19.73821 | 21823 ft | 298 kts | 258° |
| 2026-04-26 11:17 | 59.74592 | 19.69897 | 21397 ft | 295 kts | 259° |
| 2026-04-26 11:17 | 59.74046 | 19.65991 | 20992 ft | 293 kts | 259° |
| 2026-04-26 11:17 | 59.73521 | 19.62094 | 20592 ft | 292 kts | 260° |
| 2026-04-26 11:17 | 59.73002 | 19.58217 | 20198 ft | 290 kts | 259° |
| 2026-04-26 11:18 | 59.72481 | 19.54359 | 19787 ft | 289 kts | 259° |
| 2026-04-26 11:18 | 59.71959 | 19.50528 | 19397 ft | 288 kts | 259° |
| 2026-04-26 11:18 | 59.71432 | 19.46706 | 19002 ft | 287 kts | 259° |
| 2026-04-26 11:18 | 59.70903 | 19.42895 | 18611 ft | 287 kts | 259° |
| 2026-04-26 11:19 | 59.70375 | 19.39100 | 18202 ft | 286 kts | 259° |
| 2026-04-26 11:19 | 59.69846 | 19.35303 | 17789 ft | 285 kts | 259° |
| 2026-04-26 11:19 | 59.69323 | 19.31547 | 17418 ft | 282 kts | 259° |
| 2026-04-26 11:19 | 59.68799 | 19.27813 | 17041 ft | 280 kts | 259° |
| 2026-04-26 11:20 | 59.68277 | 19.24105 | 16664 ft | 279 kts | 259° |
| 2026-04-26 11:20 | 59.67934 | 19.21668 | 16412 ft | 278 kts | 259° |
| 2026-04-26 11:20 | 59.67239 | 19.16759 | 15935 ft | 276 kts | 259° |
| 2026-04-26 11:20 | 59.66721 | 19.13108 | 15572 ft | 275 kts | 259° |
| 2026-04-26 11:21 | 59.66205 | 19.09480 | 15207 ft | 274 kts | 259° |
| 2026-04-26 11:21 | 59.65686 | 19.05848 | 14876 ft | 278 kts | 259° |
| 2026-04-26 11:21 | 59.65154 | 19.02091 | 14556 ft | 287 kts | 259° |
| 2026-04-26 11:21 | 59.64613 | 18.98292 | 14237 ft | 288 kts | 259° |
| 2026-04-26 11:22 | 59.64068 | 18.94488 | 13910 ft | 287 kts | 259° |
| 2026-04-26 11:22 | 59.63522 | 18.90697 | 13562 ft | 286 kts | 258° |
| 2026-04-26 11:22 | 59.62974 | 18.86916 | 13236 ft | 286 kts | 258° |
| 2026-04-26 11:22 | 59.62427 | 18.83151 | 12907 ft | 284 kts | 258° |
| 2026-04-26 11:23 | 59.61881 | 18.79410 | 12584 ft | 284 kts | 258° |
| 2026-04-26 11:23 | 59.61337 | 18.75670 | 12266 ft | 283 kts | 259° |
| 2026-04-26 11:23 | 59.60797 | 18.71943 | 11949 ft | 282 kts | 259° |
| 2026-04-26 11:23 | 59.60259 | 18.68235 | 11636 ft | 280 kts | 258° |
| 2026-04-26 11:24 | 59.59721 | 18.64537 | 11315 ft | 280 kts | 258° |
| 2026-04-26 11:24 | 59.59181 | 18.60853 | 10996 ft | 279 kts | 258° |
| 2026-04-26 11:24 | 59.58638 | 18.57174 | 10681 ft | 279 kts | 258° |
| 2026-04-26 11:24 | 59.58266 | 18.54667 | 10462 ft | 278 kts | 258° |
| 2026-04-26 11:25 | 59.57827 | 18.51786 | 10225 ft | 278 kts | 258° |
| 2026-04-26 11:25 | 59.57282 | 18.48159 | 9977 ft | 272 kts | 258° |
| 2026-04-26 11:25 | 59.56761 | 18.44620 | 9748 ft | 266 kts | 258° |
| 2026-04-26 11:25 | 59.56246 | 18.41103 | 9418 ft | 266 kts | 258° |
| 2026-04-26 11:26 | 59.55733 | 18.37608 | 9042 ft | 265 kts | 259° |
| 2026-04-26 11:26 | 59.55219 | 18.34126 | 8677 ft | 264 kts | 258° |
| 2026-04-26 11:26 | 59.54707 | 18.30670 | 8294 ft | 264 kts | 259° |
| 2026-04-26 11:26 | 59.54193 | 18.27209 | 7914 ft | 263 kts | 259° |
| 2026-04-26 11:27 | 59.53677 | 18.23746 | 7543 ft | 263 kts | 259° |
| 2026-04-26 11:27 | 59.53051 | 18.20401 | 7167 ft | 267 kts | 248° |
| 2026-04-26 11:27 | 59.51982 | 18.17300 | 6702 ft | 273 kts | 238° |
| 2026-04-26 11:27 | 59.50812 | 18.14353 | 6217 ft | 275 kts | 238° |
| 2026-04-26 11:28 | 59.49649 | 18.11434 | 5789 ft | 274 kts | 237° |
| 2026-04-26 11:28 | 59.48478 | 18.08489 | 5350 ft | 273 kts | 237° |
| 2026-04-26 11:28 | 59.47348 | 18.05662 | 5218 ft | 261 kts | 237° |
| 2026-04-26 11:28 | 59.46261 | 18.02962 | 5098 ft | 241 kts | 238° |
| 2026-04-26 11:29 | 59.45257 | 18.00470 | 4935 ft | 225 kts | 238° |
| 2026-04-26 11:29 | 59.44310 | 17.98095 | 4808 ft | 217 kts | 239° |
| 2026-04-26 11:29 | 59.43455 | 17.95743 | 4682 ft | 202 kts | 254° |
| 2026-04-26 11:29 | 59.43237 | 17.93211 | 4584 ft | 177 kts | 282° |
| 2026-04-26 11:30 | 59.43636 | 17.91035 | 4237 ft | 168 kts | 309° |
| 2026-04-26 11:30 | 59.44173 | 17.89947 | 4129 ft | 161 kts | 325° |
| 2026-04-26 11:30 | 59.45501 | 17.89019 | 3926 ft | 153 kts | 354° |
| 2026-04-26 11:30 | 59.46553 | 17.89277 | 3743 ft | 151 kts | 4° |
| 2026-04-26 11:31 | 59.47572 | 17.89644 | 3537 ft | 147 kts | 5° |
| 2026-04-26 11:31 | 59.48569 | 17.90002 | 3340 ft | 145 kts | 4° |
| 2026-04-26 11:31 | 59.49551 | 17.90355 | 3133 ft | 139 kts | 5° |
| 2026-04-26 11:31 | 59.50470 | 17.90686 | 2957 ft | 132 kts | 4° |
| 2026-04-26 11:32 | 59.51363 | 17.91007 | 2750 ft | 130 kts | 4° |
| 2026-04-26 11:32 | 59.52246 | 17.91323 | 2570 ft | 128 kts | 4° |
| 2026-04-26 11:32 | 59.53123 | 17.91639 | 2391 ft | 128 kts | 3° |
| 2026-04-26 11:32 | 59.53996 | 17.91953 | 2213 ft | 128 kts | 4° |
| 2026-04-26 11:33 | 59.54871 | 17.92267 | 2019 ft | 127 kts | 4° |
| 2026-04-26 11:33 | 59.55739 | 17.92581 | 1841 ft | 126 kts | 4° |
| 2026-04-26 11:33 | 59.56602 | 17.92892 | 1670 ft | 126 kts | 4° |
| 2026-04-26 11:33 | 59.57466 | 17.93203 | 1486 ft | 127 kts | 4° |
| 2026-04-26 11:34 | 59.58334 | 17.93517 | 1276 ft | 127 kts | 5° |
| 2026-04-26 11:34 | 59.59211 | 17.93833 | 987 ft | 128 kts | 3° |
| 2026-04-26 11:34 | 59.60086 | 17.94149 | 768 ft | 128 kts | 4° |
| 2026-04-26 11:34 | 59.60961 | 17.94466 | 552 ft | 128 kts | 4° |
| 2026-04-26 11:35 | 59.61827 | 17.94780 | 361 ft | 127 kts | 1° |
| 2026-04-26 11:35 | 59.62689 | 17.95093 | 202 ft | 126 kts | 5° |
| 2026-04-26 11:35 | 59.63494 | 17.95364 | 122 ft | 100 kts | 8° |
| 2026-04-26 11:35 | 59.63880 | 17.95510 | 115 ft | 66 kts | 12° |
| 2026-04-26 11:36 | 59.64199 | 17.95479 | 109 ft | 25 kts | 342° |
| 2026-04-26 11:36 | 59.64343 | 17.95381 | 106 ft | 16 kts | 341° |
| 2026-04-26 11:36 | 59.64457 | 17.95333 | 105 ft | 15 kts | 11° |
| 2026-04-26 11:36 | 59.64528 | 17.95350 | 105 ft | 10 kts | 6° |
| 2026-04-26 11:37 | 59.64610 | 17.95370 | 105 ft | 13 kts | 9° |
| 2026-04-26 11:37 | 59.64703 | 17.95414 | 106 ft | 9 kts | 15° |
| 2026-04-26 11:37 | 59.64720 | 17.95422 | 106 ft | 5 kts | 15° |
| 2026-04-26 11:37 | 59.64791 | 17.95450 | 107 ft | 12 kts | 10° |
| 2026-04-26 11:38 | 59.64870 | 17.95437 | 106 ft | 12 kts | 319° |
| 2026-04-26 11:38 | 59.64848 | 17.95293 | 105 ft | 15 kts | 204° |
| 2026-04-26 11:38 | 59.64768 | 17.95164 | 103 ft | 17 kts | 238° |
| 2026-04-26 11:38 | 59.64699 | 17.94953 | 101 ft | 19 kts | 236° |
| 2026-04-26 11:39 | 59.64590 | 17.94830 | 100 ft | 19 kts | 188° |
| 2026-04-26 11:39 | 59.64472 | 17.94792 | 102 ft | 16 kts | 189° |
| 2026-04-26 11:39 | 59.64384 | 17.94712 | 103 ft | 14 kts | 233° |
| 2026-04-26 11:39 | 59.64330 | 17.94535 | 103 ft | 16 kts | 237° |
| 2026-04-26 11:40 | 59.64264 | 17.94330 | 103 ft | 19 kts | 238° |
| 2026-04-26 11:40 | 59.64192 | 17.94105 | 106 ft | 19 kts | 237° |
| 2026-04-26 11:40 | 59.64121 | 17.93882 | 109 ft | 19 kts | 237° |
| 2026-04-26 11:40 | 59.64048 | 17.93659 | 113 ft | 20 kts | 238° |
| 2026-04-26 11:41 | 59.63989 | 17.93402 | 111 ft | 21 kts | 267° |
| 2026-04-26 11:42 | 59.64367 | 17.92676 | 112 ft | 6 kts | 46° |
| 2026-04-26 11:43 | 59.64392 | 17.92728 | 112 ft | 4 kts | 45° |
| 2026-04-26 11:43 | 59.64401 | 17.92746 | 112 ft | 0 kts | 45° |